createdAt,value
2019-05-26T00:00:56.637Z,97.60
2019-05-26T00:01:56.653Z,96.98
2019-05-26T00:02:56.603Z,96.57
2019-05-26T00:03:56.628Z,96.01
2019-05-26T00:04:56.628Z,95.61
2019-05-26T00:05:56.590Z,95.40
2019-05-26T00:06:57.823Z,94.95
2019-05-26T00:07:56.629Z,93.92
2019-05-26T00:08:56.577Z,93.71
2019-05-26T00:09:56.579Z,93.62
2019-05-26T00:10:56.511Z,93.37
2019-05-26T00:11:56.566Z,93.16
2019-05-26T00:12:56.529Z,93.20
2019-05-26T00:13:56.509Z,93.30
2019-05-26T00:14:56.489Z,93.30
2019-05-26T00:15:56.749Z,93.41
2019-05-26T00:16:56.479Z,93.71
2019-05-26T00:17:56.486Z,94.02
2019-05-26T00:18:56.442Z,94.17
2019-05-26T00:19:56.502Z,94.07
2019-05-26T00:20:56.427Z,94.17
2019-05-26T00:21:56.425Z,94.48
2019-05-26T00:22:56.390Z,94.48
2019-05-26T00:23:56.613Z,94.58
2019-05-26T00:24:56.414Z,94.73
2019-05-26T00:25:56.380Z,94.73
2019-05-26T00:26:56.374Z,94.93
2019-05-26T00:27:56.368Z,94.83
2019-05-26T00:28:56.338Z,94.73
2019-05-26T00:29:56.370Z,95.03
2019-05-26T00:30:56.279Z,95.54
2019-05-26T00:31:56.353Z,95.54
2019-05-26T00:32:56.296Z,95.65
2019-05-26T00:33:56.314Z,96.00
2019-05-26T00:34:56.287Z,96.20
2019-05-26T00:35:56.274Z,96.62
2019-05-26T00:36:56.231Z,96.82
2019-05-26T00:37:56.270Z,96.67
2019-05-26T00:38:56.230Z,95.95
2019-05-26T00:39:56.217Z,95.65
2019-05-26T00:40:56.226Z,95.65
2019-05-26T00:41:56.200Z,95.75
2019-05-26T00:42:56.234Z,95.65
2019-05-26T00:43:56.188Z,95.75
2019-05-26T00:44:56.162Z,95.95
2019-05-26T00:45:56.135Z,96.20
2019-05-26T00:46:56.146Z,96.10
2019-05-26T00:47:56.138Z,96.10
2019-05-26T00:48:56.137Z,95.29
2019-05-26T00:49:56.147Z,94.27
2019-05-26T00:50:56.181Z,93.76
2019-05-26T00:51:56.106Z,93.20
2019-05-26T00:52:56.884Z,92.90
2019-05-26T00:53:56.117Z,92.69
2019-05-26T00:54:56.067Z,92.69
2019-05-26T00:55:56.066Z,92.90
2019-05-26T00:56:56.996Z,93.15
2019-05-26T00:57:56.018Z,93.04
2019-05-26T00:58:56.055Z,92.83
2019-05-26T00:59:56.038Z,93.15
2019-05-26T01:00:56.043Z,93.25
2019-05-26T01:01:56.025Z,93.45
2019-05-26T01:02:55.974Z,93.66
2019-05-26T01:03:55.953Z,94.01
2019-05-26T01:04:55.986Z,94.01
2019-05-26T01:05:55.956Z,94.01
2019-05-26T01:06:55.930Z,94.01
2019-05-26T01:08:05.858Z,94.42
2019-05-26T01:08:56.908Z,94.73
2019-05-26T01:09:55.926Z,94.83
2019-05-26T01:10:55.909Z,94.83
2019-05-26T01:11:55.848Z,95.18
2019-05-26T01:12:55.886Z,95.39
2019-05-26T01:13:55.886Z,95.49
2019-05-26T01:14:55.846Z,95.69
2019-05-26T01:15:55.837Z,95.90
2019-05-26T01:16:56.307Z,96.10
2019-05-26T01:17:55.823Z,96.35
2019-05-26T01:18:55.802Z,96.56
2019-05-26T01:19:55.775Z,96.56
2019-05-26T01:20:55.803Z,96.56
2019-05-26T01:21:55.765Z,96.77
2019-05-26T01:22:55.764Z,96.97
2019-05-26T01:23:55.734Z,96.97
2019-05-26T01:24:55.726Z,96.87
2019-05-26T01:25:55.765Z,96.97
2019-05-26T01:26:55.743Z,97.07
2019-05-26T01:27:55.714Z,97.22
2019-05-26T01:28:55.725Z,97.42
2019-05-26T01:29:55.686Z,97.42
2019-05-26T01:30:55.714Z,97.63
2019-05-26T01:31:55.643Z,97.38
2019-05-26T01:32:55.650Z,96.56
2019-05-26T01:33:55.654Z,96.10
2019-05-26T01:34:55.665Z,95.79
2019-05-26T01:35:55.623Z,94.83
2019-05-26T01:36:55.636Z,94.32
2019-05-26T01:37:55.612Z,93.76
2019-05-26T01:38:55.599Z,92.69
2019-05-26T01:39:55.556Z,91.77
2019-05-26T01:40:55.610Z,91.11
2019-05-26T01:41:55.560Z,90.39
2019-05-26T01:42:55.522Z,89.53
2019-05-26T01:43:55.541Z,89.43
2019-05-26T01:44:55.483Z,89.53
2019-05-26T01:45:55.503Z,89.33
2019-05-26T01:46:55.523Z,88.88
2019-05-26T01:47:55.525Z,88.68
2019-05-26T01:48:55.453Z,88.57
2019-05-26T01:49:55.453Z,88.57
2019-05-26T01:50:55.462Z,87.96
2019-05-26T01:51:55.466Z,88.06
2019-05-26T01:52:55.434Z,87.65
2019-05-26T01:53:55.452Z,87.55
2019-05-26T01:54:55.421Z,87.30
2019-05-26T01:55:55.400Z,87.51
2019-05-26T01:56:55.393Z,87.51
2019-05-26T01:57:55.385Z,87.51
2019-05-26T01:58:55.417Z,87.96
2019-05-26T01:59:55.374Z,87.76
2019-05-26T02:00:55.355Z,88.06
2019-05-26T02:01:58.524Z,88.37
2019-05-26T02:02:55.399Z,88.06
2019-05-26T02:03:55.313Z,88.57
2019-05-26T02:04:55.366Z,88.37
2019-05-26T02:05:55.364Z,88.71
2019-05-26T02:06:55.313Z,88.57
2019-05-26T02:07:55.289Z,88.57
2019-05-26T02:08:55.252Z,88.06
2019-05-26T02:09:55.249Z,87.96
2019-05-26T02:10:55.262Z,87.96
2019-05-26T02:11:55.257Z,87.96
2019-05-26T02:12:55.213Z,88.17
2019-05-26T02:13:55.282Z,88.17
2019-05-26T02:14:55.228Z,88.26
2019-05-26T02:15:55.181Z,88.37
2019-05-26T02:16:55.191Z,88.47
2019-05-26T02:17:55.164Z,88.37
2019-05-26T02:18:55.221Z,89.12
2019-05-26T02:19:55.162Z,88.92
2019-05-26T02:20:55.188Z,89.23
2019-05-26T02:21:55.128Z,89.33
2019-05-26T02:22:55.099Z,89.74
2019-05-26T02:23:55.144Z,89.89
2019-05-26T02:24:55.124Z,89.98
2019-05-26T02:25:55.081Z,90.09
2019-05-26T02:26:55.071Z,90.39
2019-05-26T02:27:55.050Z,90.19
2019-05-26T02:28:55.039Z,90.30
2019-05-26T02:29:55.055Z,90.39
2019-05-26T02:30:55.040Z,90.39
2019-05-26T02:31:54.996Z,89.84
2019-05-26T02:32:55.033Z,89.39
2019-05-26T02:33:54.991Z,88.68
2019-05-26T02:34:55.138Z,87.71
2019-05-26T02:35:55.060Z,86.85
2019-05-26T02:36:55.049Z,87.06
2019-05-26T02:37:54.945Z,86.24
2019-05-26T02:39:02.792Z,86.10
2019-05-26T02:39:55.961Z,85.69
2019-05-26T02:40:54.999Z,85.69
2019-05-26T02:41:54.897Z,85.49
2019-05-26T02:42:54.883Z,85.59
2019-05-26T02:43:54.873Z,85.79
2019-05-26T02:44:59.150Z,85.28
2019-05-26T02:45:54.897Z,85.04
2019-05-26T02:46:54.841Z,85.35
2019-05-26T02:47:54.905Z,84.83
2019-05-26T02:48:54.860Z,84.53
2019-05-26T02:49:54.821Z,84.33
2019-05-26T02:50:54.841Z,84.53
2019-05-26T02:51:54.828Z,84.42
2019-05-26T02:52:54.833Z,84.63
2019-05-26T02:53:54.807Z,85.04
2019-05-26T02:54:54.805Z,85.35
2019-05-26T02:55:54.767Z,85.14
2019-05-26T02:56:54.761Z,85.35
2019-05-26T02:57:54.757Z,84.74
2019-05-26T02:58:54.742Z,85.04
2019-05-26T02:59:54.727Z,84.74
2019-05-26T03:00:54.718Z,85.14
2019-05-26T03:02:03.348Z,85.04
2019-05-26T03:02:55.753Z,84.74
2019-05-26T03:03:54.679Z,84.59
2019-05-26T03:04:54.680Z,84.80
2019-05-26T03:05:54.673Z,84.80
2019-05-26T03:06:54.730Z,84.28
2019-05-26T03:07:54.701Z,83.87
2019-05-26T03:08:54.671Z,83.43
2019-05-26T03:09:54.738Z,83.63
2019-05-26T03:10:54.616Z,83.73
2019-05-26T03:11:54.584Z,83.78
2019-05-26T03:12:54.557Z,84.39
2019-05-26T03:13:54.650Z,83.98
2019-05-26T03:14:54.562Z,84.49
2019-05-26T03:15:54.581Z,84.69
2019-05-26T03:16:55.854Z,84.69
2019-05-26T03:17:55.798Z,85.10
2019-05-26T03:18:54.591Z,84.80
2019-05-26T03:19:54.593Z,85.30
2019-05-26T03:20:54.533Z,84.80
2019-05-26T03:21:54.508Z,83.94
2019-05-26T03:22:54.498Z,83.53
2019-05-26T03:23:54.484Z,84.00
2019-05-26T03:24:54.448Z,84.11
2019-05-26T03:25:54.460Z,84.11
2019-05-26T03:26:54.405Z,84.04
2019-05-26T03:27:54.470Z,84.00
2019-05-26T03:28:54.436Z,83.90
2019-05-26T03:29:54.393Z,84.11
2019-05-26T03:30:56.528Z,84.41
2019-05-26T03:31:54.544Z,84.72
2019-05-26T03:32:54.755Z,84.61
2019-05-26T03:33:54.410Z,84.66
2019-05-26T03:34:54.343Z,85.06
2019-05-26T03:35:54.428Z,85.06
2019-05-26T03:36:54.406Z,85.06
2019-05-26T03:37:54.400Z,85.37
2019-05-26T03:38:54.599Z,85.47
2019-05-26T03:39:54.436Z,85.57
2019-05-26T03:40:54.332Z,85.77
2019-05-26T03:41:54.240Z,85.68
2019-05-26T03:42:54.267Z,85.68
2019-05-26T03:44:10.183Z,85.88
2019-05-26T03:44:56.283Z,85.68
2019-05-26T03:45:54.775Z,85.88
2019-05-26T03:46:56.513Z,85.88
2019-05-26T03:47:54.243Z,85.88
2019-05-26T03:48:54.766Z,86.08
2019-05-26T03:49:54.732Z,85.98
2019-05-26T03:50:54.241Z,85.88
2019-05-26T03:51:54.479Z,85.88
2019-05-26T03:52:54.194Z,86.08
2019-05-26T03:53:54.136Z,85.77
2019-05-26T03:54:54.174Z,85.98
2019-05-26T03:55:54.137Z,86.08
2019-05-26T03:56:54.116Z,86.29
2019-05-26T03:57:54.121Z,86.39
2019-05-26T03:58:54.373Z,86.29
2019-05-26T03:59:54.423Z,86.39
2019-05-26T04:00:54.324Z,86.29
2019-05-26T04:01:57.638Z,86.18
2019-05-26T04:02:54.076Z,85.88
2019-05-26T04:03:54.122Z,86.69
2019-05-26T04:04:54.015Z,85.94
2019-05-26T04:05:54.018Z,85.53
2019-05-26T04:06:54.028Z,85.22
2019-05-26T04:07:54.017Z,85.74
2019-05-26T04:08:53.978Z,85.84
2019-05-26T04:10:04.892Z,86.35
2019-05-26T04:10:54.935Z,85.84
2019-05-26T04:11:53.922Z,85.94
2019-05-26T04:12:53.908Z,86.35
2019-05-26T04:13:53.926Z,86.15
2019-05-26T04:14:53.949Z,86.04
2019-05-26T04:15:54.154Z,86.35
2019-05-26T04:16:56.376Z,86.39
2019-05-26T04:17:54.373Z,86.90
2019-05-26T04:18:54.702Z,86.80
2019-05-26T04:19:53.875Z,86.69
2019-05-26T04:20:53.807Z,86.49
2019-05-26T04:21:53.832Z,86.39
2019-05-26T04:22:53.993Z,86.69
2019-05-26T04:23:53.999Z,86.49
2019-05-26T04:24:54.202Z,86.80
2019-05-26T04:25:53.845Z,86.80
2019-05-26T04:26:55.146Z,86.59
2019-05-26T04:27:54.296Z,87.20
2019-05-26T04:28:53.797Z,87.00
2019-05-26T04:29:53.753Z,87.00
2019-05-26T04:30:53.721Z,87.00
2019-05-26T04:31:53.703Z,86.90
2019-05-26T04:32:53.705Z,87.00
2019-05-26T04:33:53.691Z,87.00
2019-05-26T04:34:53.801Z,87.00
2019-05-26T04:35:54.899Z,86.90
2019-05-26T04:36:53.797Z,86.90
2019-05-26T04:37:53.741Z,86.69
2019-05-26T04:38:53.714Z,87.16
2019-05-26T04:39:53.674Z,86.76
2019-05-26T04:40:53.660Z,86.86
2019-05-26T04:41:53.609Z,86.86
2019-05-26T04:42:53.745Z,86.96
2019-05-26T04:43:54.324Z,86.65
2019-05-26T04:44:53.580Z,86.76
2019-05-26T04:45:53.704Z,86.86
2019-05-26T04:46:53.569Z,86.65
2019-05-26T04:47:53.513Z,86.65
2019-05-26T04:48:53.534Z,86.55
2019-05-26T04:49:53.553Z,86.55
2019-05-26T04:50:53.513Z,86.45
2019-05-26T04:51:53.473Z,86.82
2019-05-26T04:53:05.472Z,86.65
2019-05-26T04:53:54.485Z,86.86
2019-05-26T04:54:53.814Z,86.71
2019-05-26T04:55:53.432Z,87.12
2019-05-26T04:56:53.481Z,86.92
2019-05-26T04:57:53.411Z,86.92
2019-05-26T04:58:54.370Z,86.82
2019-05-26T04:59:54.270Z,86.61
2019-05-26T05:00:54.016Z,86.61
2019-05-26T05:01:54.668Z,86.51
2019-05-26T05:02:53.398Z,86.21
2019-05-26T05:03:53.422Z,86.30
2019-05-26T05:04:53.345Z,86.27
2019-05-26T05:05:53.576Z,85.86
2019-05-26T05:06:53.333Z,85.75
2019-05-26T05:07:53.378Z,85.45
2019-05-26T05:08:53.384Z,85.35
2019-05-26T05:09:53.272Z,85.86
2019-05-26T05:10:53.302Z,85.14
2019-05-26T05:11:53.271Z,85.45
2019-05-26T05:12:53.343Z,85.86
2019-05-26T05:13:53.272Z,84.84
2019-05-26T05:14:53.258Z,85.45
2019-05-26T05:15:53.200Z,84.70
2019-05-26T05:16:53.195Z,84.80
2019-05-26T05:17:53.184Z,84.19
2019-05-26T05:18:53.171Z,85.11
2019-05-26T05:19:53.169Z,83.89
2019-05-26T05:20:53.148Z,83.98
2019-05-26T05:21:53.163Z,83.58
2019-05-26T05:22:53.171Z,83.48
2019-05-26T05:23:53.123Z,83.54
2019-05-26T05:24:53.091Z,83.23
2019-05-26T05:25:53.119Z,83.13
2019-05-26T05:26:53.409Z,82.82
2019-05-26T05:27:53.081Z,82.42
2019-05-26T05:28:53.053Z,82.42
2019-05-26T05:29:53.048Z,82.82
2019-05-26T05:30:53.040Z,82.38
2019-05-26T05:31:53.038Z,81.87
2019-05-26T05:32:53.040Z,81.57
2019-05-26T05:33:53.009Z,80.15
2019-05-26T05:34:52.988Z,81.02
2019-05-26T05:35:53.007Z,80.72
2019-05-26T05:36:52.979Z,79.56
2019-05-26T05:37:52.961Z,80.07
2019-05-26T05:38:52.971Z,79.16
2019-05-26T05:39:52.932Z,78.85
2019-05-26T05:40:59.422Z,79.05
2019-05-26T05:41:54.756Z,79.46
2019-05-26T05:42:52.939Z,78.85
2019-05-26T05:43:52.918Z,79.12
2019-05-26T05:44:52.899Z,79.16
2019-05-26T05:45:52.891Z,78.64
2019-05-26T05:46:52.861Z,79.36
2019-05-26T05:47:52.882Z,79.05
2019-05-26T05:48:52.837Z,79.12
2019-05-26T05:49:52.849Z,78.91
2019-05-26T05:50:52.818Z,79.72
2019-05-26T05:51:52.809Z,79.72
2019-05-26T05:52:52.807Z,78.51
2019-05-26T05:53:52.835Z,78.10
2019-05-26T05:54:52.787Z,79.42
2019-05-26T05:55:52.770Z,79.12
2019-05-26T05:56:55.654Z,79.18
2019-05-26T05:57:52.741Z,78.17
2019-05-26T05:58:52.741Z,78.17
2019-05-26T05:59:52.760Z,78.17
2019-05-26T06:00:52.731Z,78.67
2019-05-26T06:01:52.731Z,78.98
2019-05-26T06:02:52.708Z,78.57
2019-05-26T06:03:52.701Z,78.27
2019-05-26T06:04:52.695Z,78.88
2019-05-26T06:05:52.663Z,77.97
2019-05-26T06:06:52.645Z,78.84
2019-05-26T06:07:52.646Z,79.04
2019-05-26T06:08:52.621Z,78.23
2019-05-26T06:09:52.702Z,78.13
2019-05-26T06:10:52.598Z,78.53
2019-05-26T06:11:56.721Z,79.14
2019-05-26T06:12:52.575Z,78.53
2019-05-26T06:13:52.581Z,77.93
2019-05-26T06:14:52.690Z,78.30
2019-05-26T06:15:52.581Z,78.19
2019-05-26T06:16:52.541Z,77.59
2019-05-26T06:17:52.517Z,77.99
2019-05-26T06:18:52.521Z,79.11
2019-05-26T06:19:52.497Z,78.50
2019-05-26T06:20:52.499Z,79.31
2019-05-26T06:21:52.510Z,79.88
2019-05-26T06:22:52.475Z,78.97
2019-05-26T06:23:52.472Z,78.77
2019-05-26T06:24:52.479Z,78.36
2019-05-26T06:25:52.442Z,78.77
2019-05-26T06:26:52.427Z,78.87
2019-05-26T06:27:52.439Z,77.95
2019-05-26T06:28:52.825Z,78.63
2019-05-26T06:29:59.027Z,79.13
2019-05-26T06:30:53.391Z,79.44
2019-05-26T06:31:52.579Z,78.42
2019-05-26T06:32:52.386Z,78.22
2019-05-26T06:33:52.368Z,77.61
2019-05-26T06:34:52.354Z,77.61
2019-05-26T06:35:52.328Z,78.53
2019-05-26T06:36:52.329Z,77.51
2019-05-26T06:37:52.327Z,79.94
2019-05-26T06:38:52.304Z,78.93
2019-05-26T06:39:52.286Z,77.98
2019-05-26T06:40:52.288Z,77.61
2019-05-26T06:41:52.269Z,77.51
2019-05-26T06:42:52.279Z,78.73
2019-05-26T06:43:52.247Z,79.24
2019-05-26T06:44:53.949Z,79.10
2019-05-26T06:45:52.247Z,79.40
2019-05-26T06:46:52.248Z,78.79
2019-05-26T06:47:52.206Z,78.39
2019-05-26T06:48:52.198Z,78.39
2019-05-26T06:49:52.190Z,77.41
2019-05-26T06:50:52.169Z,78.49
2019-05-26T06:51:52.158Z,77.28
2019-05-26T06:52:52.185Z,77.98
2019-05-26T06:53:52.167Z,78.19
2019-05-26T06:54:52.125Z,78.19
2019-05-26T06:55:52.129Z,78.08
2019-05-26T06:56:52.119Z,78.08
2019-05-26T06:57:52.109Z,77.37
2019-05-26T06:58:52.110Z,76.87
2019-05-26T06:59:52.075Z,76.97
2019-05-26T07:00:52.089Z,76.43
2019-05-26T07:01:52.075Z,76.73
2019-05-26T07:02:52.079Z,76.73
2019-05-26T07:03:52.062Z,77.75
2019-05-26T07:04:52.016Z,76.29
2019-05-26T07:05:52.018Z,75.79
2019-05-26T07:06:52.030Z,75.95
2019-05-26T07:07:52.021Z,75.14
2019-05-26T07:08:51.977Z,73.56
2019-05-26T07:09:51.997Z,74.94
2019-05-26T07:10:51.955Z,76.46
2019-05-26T07:11:59.700Z,76.22
2019-05-26T07:12:52.927Z,73.69
2019-05-26T07:13:51.938Z,73.69
2019-05-26T07:14:51.936Z,73.79
2019-05-26T07:15:51.901Z,73.79
2019-05-26T07:16:51.881Z,75.07
2019-05-26T07:17:51.891Z,72.91
2019-05-26T07:18:51.872Z,71.23
2019-05-26T07:19:51.866Z,73.35
2019-05-26T07:20:51.879Z,72.75
2019-05-26T07:21:51.839Z,72.81
2019-05-26T07:22:51.827Z,72.51
2019-05-26T07:23:51.808Z,70.19
2019-05-26T07:24:51.808Z,72.00
2019-05-26T07:25:51.797Z,70.39
2019-05-26T07:26:52.188Z,71.10
2019-05-26T07:27:51.802Z,70.53
2019-05-26T07:28:51.767Z,72.00
2019-05-26T07:29:51.760Z,70.59
2019-05-26T07:30:51.776Z,71.40
2019-05-26T07:31:51.760Z,70.59
2019-05-26T07:32:51.745Z,69.92
2019-05-26T07:33:51.711Z,70.96
2019-05-26T07:34:51.725Z,70.36
2019-05-26T07:35:51.688Z,70.76
2019-05-26T07:36:51.698Z,70.83
2019-05-26T07:37:51.679Z,70.32
2019-05-26T07:38:51.675Z,70.32
2019-05-26T07:39:51.639Z,70.02
2019-05-26T07:40:51.629Z,71.64
2019-05-26T07:42:08.617Z,70.19
2019-05-26T07:42:52.607Z,71.00
2019-05-26T07:43:51.614Z,69.18
2019-05-26T07:44:51.580Z,70.19
2019-05-26T07:45:51.574Z,69.89
2019-05-26T07:46:51.591Z,71.60
2019-05-26T07:47:51.559Z,70.19
2019-05-26T07:48:51.559Z,69.15
2019-05-26T07:49:51.538Z,70.76
2019-05-26T07:50:51.524Z,69.85
2019-05-26T07:51:51.515Z,68.84
2019-05-26T07:52:51.526Z,69.01
2019-05-26T07:53:51.513Z,70.12
2019-05-26T07:54:51.476Z,68.41
2019-05-26T07:55:51.470Z,68.33
2019-05-26T07:56:51.461Z,69.95
2019-05-26T07:57:51.468Z,70.12
2019-05-26T07:58:51.429Z,68.01
2019-05-26T07:59:51.491Z,70.39
2019-05-26T08:00:51.471Z,69.48
2019-05-26T08:01:51.398Z,70.29
2019-05-26T08:02:51.389Z,68.68
2019-05-26T08:03:51.482Z,68.48
2019-05-26T08:04:51.369Z,67.97
2019-05-26T08:05:51.363Z,69.79
2019-05-26T08:06:51.351Z,67.47
2019-05-26T08:07:51.328Z,67.47
2019-05-26T08:08:51.320Z,67.87
2019-05-26T08:09:51.368Z,66.59
2019-05-26T08:10:51.300Z,67.67
2019-05-26T08:11:51.301Z,66.66
2019-05-26T08:12:51.295Z,66.42
2019-05-26T08:13:51.292Z,65.92
2019-05-26T08:14:51.320Z,66.80
2019-05-26T08:15:51.253Z,67.00
2019-05-26T08:16:51.388Z,67.68
2019-05-26T08:17:51.319Z,65.62
2019-05-26T08:18:51.249Z,64.39
2019-05-26T08:19:51.260Z,64.79
2019-05-26T08:20:51.219Z,64.19
2019-05-26T08:21:54.402Z,63.48
2019-05-26T08:22:51.169Z,63.05
2019-05-26T08:23:51.170Z,63.65
2019-05-26T08:24:51.156Z,63.82
2019-05-26T08:25:51.224Z,62.39
2019-05-26T08:26:51.130Z,62.56
2019-05-26T08:27:51.160Z,62.33
2019-05-26T08:28:51.113Z,57.35
2019-05-26T08:29:51.159Z,56.56
2019-05-26T08:30:51.186Z,54.67
2019-05-26T08:31:51.098Z,53.92
2019-05-26T08:32:51.073Z,53.09
2019-05-26T08:33:51.059Z,52.37
2019-05-26T08:34:51.061Z,53.81
2019-05-26T08:35:51.055Z,51.62
2019-05-26T08:36:51.027Z,50.42
2019-05-26T08:37:51.019Z,51.29
2019-05-26T08:38:51.022Z,50.82
2019-05-26T08:39:51.004Z,50.92
2019-05-26T08:40:50.984Z,52.29
2019-05-26T08:41:50.991Z,50.10
2019-05-26T08:42:50.982Z,50.82
2019-05-26T08:43:50.962Z,51.54
2019-05-26T08:44:50.962Z,52.19
2019-05-26T08:45:50.932Z,51.12
2019-05-26T08:46:50.953Z,49.20
2019-05-26T08:47:50.909Z,48.40
2019-05-26T08:48:50.905Z,48.28
2019-05-26T08:49:50.903Z,48.88
2019-05-26T08:50:50.908Z,48.28
2019-05-26T08:51:50.881Z,48.80
2019-05-26T08:52:50.874Z,47.50
2019-05-26T08:53:50.860Z,47.58
2019-05-26T08:54:50.851Z,49.20
2019-05-26T08:55:50.833Z,49.55
2019-05-26T08:56:50.825Z,48.25
2019-05-26T08:57:50.822Z,47.88
2019-05-26T08:58:50.802Z,48.65
2019-05-26T08:59:50.794Z,46.08
2019-05-26T09:00:50.772Z,46.26
2019-05-26T09:01:50.770Z,46.31
2019-05-26T09:02:50.771Z,45.18
2019-05-26T09:03:50.752Z,46.62
2019-05-26T09:04:50.763Z,46.13
2019-05-26T09:05:50.728Z,44.22
2019-05-26T09:06:50.724Z,46.01
2019-05-26T09:07:50.725Z,47.92
2019-05-26T09:08:50.706Z,44.04
2019-05-26T09:09:50.680Z,45.23
2019-05-26T09:10:50.674Z,49.58
2019-05-26T09:11:50.688Z,46.92
2019-05-26T09:13:00.148Z,45.71
2019-05-26T09:13:51.668Z,45.53
2019-05-26T09:14:50.655Z,46.80
2019-05-26T09:15:50.634Z,47.32
2019-05-26T09:16:50.624Z,46.84
2019-05-26T09:17:50.665Z,45.21
2019-05-26T09:18:50.589Z,48.50
2019-05-26T09:19:50.586Z,45.75
2019-05-26T09:20:50.575Z,46.57
2019-05-26T09:21:50.578Z,46.59
2019-05-26T09:22:50.558Z,46.80
2019-05-26T09:23:50.575Z,50.74
2019-05-26T09:24:50.534Z,48.86
2019-05-26T09:25:50.530Z,50.87
2019-05-26T09:26:50.517Z,50.29
2019-05-26T09:27:50.498Z,50.29
2019-05-26T09:28:50.500Z,50.69
2019-05-26T09:29:50.494Z,51.79
2019-05-26T09:30:50.479Z,51.32
2019-05-26T09:31:50.475Z,51.64
2019-05-26T09:32:50.460Z,51.84
2019-05-26T09:33:50.456Z,51.06
2019-05-26T09:34:50.469Z,51.97
2019-05-26T09:35:50.438Z,50.86
2019-05-26T09:36:50.418Z,50.68
2019-05-26T09:37:50.407Z,49.48
2019-05-26T09:38:50.390Z,51.09
2019-05-26T09:39:50.389Z,52.19
2019-05-26T09:40:50.380Z,53.50
2019-05-26T09:41:50.350Z,52.80
2019-05-26T09:42:50.350Z,53.32
2019-05-26T09:43:50.383Z,54.20
2019-05-26T09:44:50.329Z,54.60
2019-05-26T09:45:50.307Z,53.37
2019-05-26T09:46:50.299Z,54.68
2019-05-26T09:47:50.300Z,56.78
2019-05-26T09:48:50.279Z,54.97
2019-05-26T09:49:50.287Z,54.77
2019-05-26T09:50:50.310Z,54.07
2019-05-26T09:51:50.267Z,54.47
2019-05-26T09:52:50.248Z,54.90
2019-05-26T09:54:01.412Z,54.43
2019-05-26T09:54:51.209Z,53.62
2019-05-26T09:55:50.213Z,53.92
2019-05-26T09:56:50.199Z,54.63
2019-05-26T09:57:50.192Z,56.21
2019-05-26T09:58:50.168Z,54.83
2019-05-26T09:59:50.161Z,55.63
2019-05-26T10:00:50.171Z,54.50
2019-05-26T10:01:50.165Z,57.71
2019-05-26T10:02:50.129Z,54.38
2019-05-26T10:03:50.122Z,54.10
2019-05-26T10:04:50.113Z,53.59
2019-05-26T10:05:50.090Z,53.57
2019-05-26T10:06:50.112Z,53.70
2019-05-26T10:07:50.102Z,54.20
2019-05-26T10:08:50.061Z,53.39
2019-05-26T10:09:50.055Z,55.68
2019-05-26T10:10:50.062Z,54.38
2019-05-26T10:11:50.069Z,54.90
2019-05-26T10:12:50.022Z,53.50
2019-05-26T10:13:50.023Z,54.02
2019-05-26T10:14:50.023Z,53.82
2019-05-26T10:15:49.990Z,53.22
2019-05-26T10:16:49.978Z,53.55
2019-05-26T10:17:49.989Z,52.84
2019-05-26T10:18:49.961Z,53.75
2019-05-26T10:19:49.962Z,53.45
2019-05-26T10:20:49.934Z,55.35
2019-05-26T10:21:49.942Z,54.35
2019-05-26T10:22:49.911Z,53.34
2019-05-26T10:23:52.864Z,54.75
2019-05-26T10:24:49.922Z,54.25
2019-05-26T10:25:49.884Z,56.38
2019-05-26T10:26:49.894Z,53.77
2019-05-26T10:27:49.862Z,55.08
2019-05-26T10:28:49.851Z,55.38
2019-05-26T10:29:49.855Z,54.78
2019-05-26T10:30:49.837Z,55.96
2019-05-26T10:31:49.823Z,52.84
2019-05-26T10:32:49.807Z,52.34
2019-05-26T10:33:49.827Z,53.34
2019-05-26T10:34:49.785Z,54.33
2019-05-26T10:35:49.814Z,53.72
2019-05-26T10:36:49.779Z,52.22
2019-05-26T10:37:49.756Z,52.39
2019-05-26T10:38:49.749Z,54.90
2019-05-26T10:39:49.760Z,52.37
2019-05-26T10:40:49.727Z,53.90
2019-05-26T10:41:49.744Z,53.30
2019-05-26T10:42:49.700Z,53.30
2019-05-26T10:43:49.715Z,54.77
2019-05-26T10:44:49.696Z,53.07
2019-05-26T10:45:49.676Z,54.68
2019-05-26T10:46:49.655Z,55.88
2019-05-26T10:47:49.645Z,55.38
2019-05-26T10:48:49.641Z,57.21
2019-05-26T10:49:49.650Z,54.60
2019-05-26T10:50:49.625Z,56.13
2019-05-26T10:51:49.614Z,56.74
2019-05-26T10:52:49.598Z,57.54
2019-05-26T10:53:49.583Z,56.84
2019-05-26T10:54:49.578Z,56.66
2019-05-26T10:55:49.587Z,57.46
2019-05-26T10:56:49.585Z,56.86
2019-05-26T10:57:49.545Z,57.37
2019-05-26T10:58:49.548Z,58.20
2019-05-26T10:59:49.524Z,58.70
2019-05-26T11:00:49.516Z,58.97
2019-05-26T11:01:49.507Z,58.47
2019-05-26T11:02:49.485Z,58.77
2019-05-26T11:03:49.496Z,57.97
2019-05-26T11:04:49.457Z,59.45
2019-05-26T11:05:49.467Z,57.91
2019-05-26T11:06:49.503Z,58.72
2019-05-26T11:07:49.433Z,57.31
2019-05-26T11:08:49.427Z,58.09
2019-05-26T11:09:49.413Z,58.99
2019-05-26T11:10:49.419Z,57.79
2019-05-26T11:11:49.417Z,57.39
2019-05-26T11:12:49.374Z,57.81
2019-05-26T11:14:01.752Z,59.12
2019-05-26T11:14:50.355Z,60.12
2019-05-26T11:15:49.344Z,58.42
2019-05-26T11:16:49.339Z,59.59
2019-05-26T11:17:49.358Z,59.79
2019-05-26T11:18:49.319Z,59.09
2019-05-26T11:19:49.313Z,59.89
2019-05-26T11:20:49.296Z,59.49
2019-05-26T11:21:49.308Z,61.47
2019-05-26T11:22:49.317Z,58.66
2019-05-26T11:23:49.276Z,60.57
2019-05-26T11:24:49.241Z,59.09
2019-05-26T11:25:49.286Z,59.59
2019-05-26T11:26:49.226Z,60.80
2019-05-26T11:27:49.249Z,59.59
2019-05-26T11:28:49.248Z,60.22
2019-05-26T11:29:49.203Z,60.19
2019-05-26T11:30:49.194Z,59.49
2019-05-26T11:31:49.179Z,60.49
2019-05-26T11:32:49.186Z,60.47
2019-05-26T11:33:49.158Z,59.89
2019-05-26T11:35:01.029Z,59.39
2019-05-26T11:35:50.131Z,59.96
2019-05-26T11:36:49.138Z,61.27
2019-05-26T11:37:49.158Z,59.23
2019-05-26T11:38:49.116Z,58.73
2019-05-26T11:39:49.129Z,58.96
2019-05-26T11:40:49.113Z,60.44
2019-05-26T11:41:54.650Z,59.77
2019-05-26T11:42:50.197Z,59.74
2019-05-26T11:43:49.073Z,59.33
2019-05-26T11:44:49.052Z,61.34
2019-05-26T11:45:49.043Z,58.43
2019-05-26T11:46:49.019Z,57.33
2019-05-26T11:47:49.007Z,57.93
2019-05-26T11:48:49.012Z,58.33
2019-05-26T11:49:48.989Z,59.23
2019-05-26T11:50:48.974Z,58.70
2019-05-26T11:51:48.979Z,57.17
2019-05-26T11:52:48.966Z,58.68
2019-05-26T11:53:48.940Z,58.87
2019-05-26T11:54:48.982Z,57.75
2019-05-26T11:55:48.934Z,57.85
2019-05-26T11:56:48.913Z,58.12
2019-05-26T11:57:48.900Z,57.46
2019-05-26T11:58:48.897Z,55.79
2019-05-26T11:59:48.926Z,56.29
2019-05-26T12:00:48.890Z,57.29
2019-05-26T12:01:48.865Z,55.77
2019-05-26T12:02:48.858Z,56.70
2019-05-26T12:03:48.840Z,55.94
2019-05-26T12:04:48.832Z,58.05
2019-05-26T12:05:48.829Z,58.35
2019-05-26T12:06:48.812Z,58.65
2019-05-26T12:07:48.790Z,58.02
2019-05-26T12:08:48.795Z,56.72
2019-05-26T12:09:48.780Z,56.57
2019-05-26T12:10:48.779Z,55.17
2019-05-26T12:11:48.751Z,55.77
2019-05-26T12:12:48.758Z,56.14
2019-05-26T12:13:48.729Z,54.94
2019-05-26T12:14:48.731Z,56.14
2019-05-26T12:15:48.733Z,55.64
2019-05-26T12:16:48.705Z,55.02
2019-05-26T12:17:48.705Z,56.31
2019-05-26T12:18:48.750Z,55.51
2019-05-26T12:19:48.684Z,55.51
2019-05-26T12:20:48.662Z,54.84
2019-05-26T12:21:48.694Z,54.49
2019-05-26T12:22:48.638Z,58.42
2019-05-26T12:23:48.631Z,58.42
2019-05-26T12:24:48.643Z,56.52
2019-05-26T12:25:48.612Z,55.62
2019-05-26T12:26:48.602Z,56.52
2019-05-26T12:27:48.594Z,56.52
2019-05-26T12:28:48.566Z,56.39
2019-05-26T12:29:48.560Z,56.89
2019-05-26T12:30:48.548Z,59.09
2019-05-26T12:31:48.545Z,57.62
2019-05-26T12:32:48.543Z,55.42
2019-05-26T12:33:48.510Z,57.89
2019-05-26T12:34:48.511Z,56.82
2019-05-26T12:35:48.509Z,58.42
2019-05-26T12:36:48.494Z,57.50
2019-05-26T12:37:48.718Z,56.32
2019-05-26T12:38:48.461Z,57.89
2019-05-26T12:39:48.462Z,55.07
2019-05-26T12:40:48.438Z,55.57
2019-05-26T12:41:48.450Z,56.20
2019-05-26T12:42:48.441Z,55.87
2019-05-26T12:43:48.465Z,57.19
2019-05-26T12:44:49.997Z,56.89
2019-05-26T12:45:48.395Z,55.79
2019-05-26T12:46:48.382Z,55.92
2019-05-26T12:47:48.378Z,57.22
2019-05-26T12:48:48.365Z,55.72
2019-05-26T12:49:48.390Z,55.22
2019-05-26T12:50:48.347Z,55.52
2019-05-26T12:51:48.332Z,54.72
2019-05-26T12:52:48.328Z,54.99